sensor_id;sensor_type;location;lat;lon;timestamp;P1;durP1;ratioP1;P2;durP2;ratioP2
84254;SDS011;74400;44.692;18.998;2024-02-26T00:01:43;23.80;;;15.00;;
84254;SDS011;74400;44.692;18.998;2024-02-26T00:04:09;28.25;;;15.88;;
84254;SDS011;74400;44.692;18.998;2024-02-26T00:06:35;25.92;;;15.50;;
84254;SDS011;74400;44.692;18.998;2024-02-26T00:09:01;29.75;;;17.13;;
84254;SDS011;74400;44.692;18.998;2024-02-26T00:11:31;28.55;;;16.88;;
84254;SDS011;74400;44.692;18.998;2024-02-26T00:13:56;25.85;;;16.50;;
84254;SDS011;74400;44.692;18.998;2024-02-26T00:16:23;29.30;;;17.30;;
84254;SDS011;74400;44.692;18.998;2024-02-26T00:18:49;35.40;;;17.23;;
84254;SDS011;74400;44.692;18.998;2024-02-26T00:21:14;29.95;;;17.52;;
84254;SDS011;74400;44.692;18.998;2024-02-26T00:23:40;31.27;;;17.05;;
84254;SDS011;74400;44.692;18.998;2024-02-26T00:26:06;28.45;;;15.90;;
84254;SDS011;74400;44.692;18.998;2024-02-26T00:28:33;18.75;;;12.65;;
84254;SDS011;74400;44.692;18.998;2024-02-26T00:30:58;20.80;;;12.38;;
84254;SDS011;74400;44.692;18.998;2024-02-26T00:33:24;28.02;;;16.00;;
84254;SDS011;74400;44.692;18.998;2024-02-26T00:35:50;27.13;;;15.80;;
84254;SDS011;74400;44.692;18.998;2024-02-26T00:38:15;32.15;;;16.35;;
84254;SDS011;74400;44.692;18.998;2024-02-26T00:40:41;24.23;;;16.05;;
84254;SDS011;74400;44.692;18.998;2024-02-26T00:43:07;25.17;;;14.32;;
84254;SDS011;74400;44.692;18.998;2024-02-26T00:45:33;20.35;;;12.55;;
84254;SDS011;74400;44.692;18.998;2024-02-26T00:47:58;22.55;;;13.00;;
84254;SDS011;74400;44.692;18.998;2024-02-26T00:50:26;18.42;;;13.52;;
84254;SDS011;74400;44.692;18.998;2024-02-26T00:52:52;28.25;;;15.85;;
84254;SDS011;74400;44.692;18.998;2024-02-26T00:55:18;27.98;;;15.07;;
84254;SDS011;74400;44.692;18.998;2024-02-26T00:57:43;27.92;;;14.98;;
84254;SDS011;74400;44.692;18.998;2024-02-26T01:00:09;22.83;;;14.48;;
84254;SDS011;74400;44.692;18.998;2024-02-26T01:02:35;24.90;;;14.38;;
84254;SDS011;74400;44.692;18.998;2024-02-26T01:05:01;20.45;;;13.82;;
84254;SDS011;74400;44.692;18.998;2024-02-26T01:07:28;22.10;;;12.70;;
84254;SDS011;74400;44.692;18.998;2024-02-26T01:09:53;20.55;;;12.52;;
84254;SDS011;74400;44.692;18.998;2024-02-26T01:12:19;23.08;;;14.00;;
84254;SDS011;74400;44.692;18.998;2024-02-26T01:14:44;22.30;;;13.50;;
84254;SDS011;74400;44.692;18.998;2024-02-26T01:17:10;17.90;;;11.70;;
84254;SDS011;74400;44.692;18.998;2024-02-26T01:19:36;20.83;;;12.35;;
84254;SDS011;74400;44.692;18.998;2024-02-26T01:22:02;24.10;;;15.32;;
84254;SDS011;74400;44.692;18.998;2024-02-26T01:24:29;25.13;;;13.93;;
84254;SDS011;74400;44.692;18.998;2024-02-26T01:26:54;24.60;;;14.13;;
84254;SDS011;74400;44.692;18.998;2024-02-26T01:29:20;25.10;;;14.38;;
84254;SDS011;74400;44.692;18.998;2024-02-26T01:31:46;25.25;;;15.15;;
84254;SDS011;74400;44.692;18.998;2024-02-26T01:34:11;24.25;;;14.32;;
84254;SDS011;74400;44.692;18.998;2024-02-26T01:36:37;23.33;;;14.65;;
84254;SDS011;74400;44.692;18.998;2024-02-26T01:39:02;27.90;;;14.45;;
84254;SDS011;74400;44.692;18.998;2024-02-26T01:41:28;26.60;;;15.45;;
84254;SDS011;74400;44.692;18.998;2024-02-26T01:43:54;17.60;;;10.73;;
84254;SDS011;74400;44.692;18.998;2024-02-26T01:46:20;16.95;;;10.38;;
84254;SDS011;74400;44.692;18.998;2024-02-26T01:48:46;18.20;;;10.38;;
84254;SDS011;74400;44.692;18.998;2024-02-26T01:51:13;18.10;;;10.85;;
84254;SDS011;74400;44.692;18.998;2024-02-26T01:53:39;19.33;;;10.68;;
84254;SDS011;74400;44.692;18.998;2024-02-26T01:56:06;19.15;;;11.55;;
84254;SDS011;74400;44.692;18.998;2024-02-26T01:58:32;20.40;;;12.20;;
84254;SDS011;74400;44.692;18.998;2024-02-26T02:01:00;23.98;;;13.38;;
84254;SDS011;74400;44.692;18.998;2024-02-26T02:03:27;18.58;;;11.98;;
84254;SDS011;74400;44.692;18.998;2024-02-26T02:05:55;16.88;;;10.45;;
84254;SDS011;74400;44.692;18.998;2024-02-26T02:08:20;15.95;;;11.52;;
84254;SDS011;74400;44.692;18.998;2024-02-26T02:10:48;20.58;;;11.90;;
84254;SDS011;74400;44.692;18.998;2024-02-26T02:13:14;18.98;;;12.13;;
84254;SDS011;74400;44.692;18.998;2024-02-26T02:15:40;19.80;;;12.45;;
84254;SDS011;74400;44.692;18.998;2024-02-26T02:18:06;15.48;;;10.35;;
84254;SDS011;74400;44.692;18.998;2024-02-26T02:20:32;15.77;;;9.95;;
84254;SDS011;74400;44.692;18.998;2024-02-26T02:22:59;18.95;;;10.40;;
84254;SDS011;74400;44.692;18.998;2024-02-26T02:25:25;18.30;;;10.55;;
84254;SDS011;74400;44.692;18.998;2024-02-26T02:27:50;14.38;;;9.13;;
84254;SDS011;74400;44.692;18.998;2024-02-26T02:30:18;18.85;;;10.70;;
84254;SDS011;74400;44.692;18.998;2024-02-26T02:32:45;18.45;;;10.80;;
84254;SDS011;74400;44.692;18.998;2024-02-26T02:35:11;16.27;;;9.63;;
84254;SDS011;74400;44.692;18.998;2024-02-26T02:37:37;18.90;;;9.10;;
84254;SDS011;74400;44.692;18.998;2024-02-26T02:40:03;18.40;;;9.60;;
84254;SDS011;74400;44.692;18.998;2024-02-26T02:42:30;15.70;;;9.48;;
84254;SDS011;74400;44.692;18.998;2024-02-26T02:44:56;17.27;;;9.82;;
84254;SDS011;74400;44.692;18.998;2024-02-26T02:47:22;18.48;;;10.75;;
84254;SDS011;74400;44.692;18.998;2024-02-26T02:49:47;17.67;;;11.25;;
84254;SDS011;74400;44.692;18.998;2024-02-26T02:52:13;17.58;;;10.50;;
84254;SDS011;74400;44.692;18.998;2024-02-26T02:54:39;14.43;;;8.77;;
84254;SDS011;74400;44.692;18.998;2024-02-26T02:57:07;16.45;;;9.18;;
84254;SDS011;74400;44.692;18.998;2024-02-26T02:59:36;16.52;;;8.43;;
84254;SDS011;74400;44.692;18.998;2024-02-26T03:02:02;12.02;;;8.85;;
84254;SDS011;74400;44.692;18.998;2024-02-26T03:04:28;16.73;;;8.90;;
84254;SDS011;74400;44.692;18.998;2024-02-26T03:06:54;16.50;;;10.07;;
84254;SDS011;74400;44.692;18.998;2024-02-26T03:09:20;16.00;;;10.20;;
84254;SDS011;74400;44.692;18.998;2024-02-26T03:11:46;17.05;;;9.52;;
84254;SDS011;74400;44.692;18.998;2024-02-26T03:14:11;13.10;;;8.23;;
84254;SDS011;74400;44.692;18.998;2024-02-26T03:16:37;14.05;;;8.82;;
84254;SDS011;74400;44.692;18.998;2024-02-26T03:19:03;16.92;;;8.68;;
84254;SDS011;74400;44.692;18.998;2024-02-26T03:21:28;18.48;;;9.93;;
84254;SDS011;74400;44.692;18.998;2024-02-26T03:23:54;15.25;;;9.32;;
84254;SDS011;74400;44.692;18.998;2024-02-26T03:26:20;14.88;;;9.40;;
84254;SDS011;74400;44.692;18.998;2024-02-26T03:28:46;16.02;;;9.60;;
84254;SDS011;74400;44.692;18.998;2024-02-26T03:31:12;14.73;;;8.93;;
84254;SDS011;74400;44.692;18.998;2024-02-26T03:33:38;12.10;;;7.53;;
84254;SDS011;74400;44.692;18.998;2024-02-26T03:36:04;14.23;;;7.70;;
84254;SDS011;74400;44.692;18.998;2024-02-26T03:38:30;12.43;;;7.82;;
84254;SDS011;74400;44.692;18.998;2024-02-26T03:40:56;14.82;;;8.30;;
84254;SDS011;74400;44.692;18.998;2024-02-26T03:43:22;15.27;;;8.48;;
84254;SDS011;74400;44.692;18.998;2024-02-26T03:45:47;15.35;;;8.63;;
84254;SDS011;74400;44.692;18.998;2024-02-26T03:48:13;18.13;;;8.30;;
84254;SDS011;74400;44.692;18.998;2024-02-26T03:50:38;13.13;;;8.60;;
84254;SDS011;74400;44.692;18.998;2024-02-26T03:53:04;12.18;;;7.82;;
84254;SDS011;74400;44.692;18.998;2024-02-26T03:55:30;11.90;;;7.22;;
84254;SDS011;74400;44.692;18.998;2024-02-26T03:57:55;11.40;;;7.78;;
84254;SDS011;74400;44.692;18.998;2024-02-26T04:00:21;16.30;;;8.40;;
84254;SDS011;74400;44.692;18.998;2024-02-26T04:02:47;19.42;;;8.05;;
84254;SDS011;74400;44.692;18.998;2024-02-26T04:05:13;10.32;;;7.25;;
84254;SDS011;74400;44.692;18.998;2024-02-26T04:07:40;9.85;;;7.10;;
84254;SDS011;74400;44.692;18.998;2024-02-26T04:10:10;11.85;;;7.43;;
84254;SDS011;74400;44.692;18.998;2024-02-26T04:12:38;20.42;;;8.77;;
84254;SDS011;74400;44.692;18.998;2024-02-26T04:15:10;14.60;;;8.93;;
84254;SDS011;74400;44.692;18.998;2024-02-26T04:17:36;13.20;;;8.10;;
84254;SDS011;74400;44.692;18.998;2024-02-26T04:20:02;12.38;;;7.75;;
84254;SDS011;74400;44.692;18.998;2024-02-26T04:22:30;14.02;;;8.07;;
84254;SDS011;74400;44.692;18.998;2024-02-26T04:24:57;11.88;;;7.53;;
84254;SDS011;74400;44.692;18.998;2024-02-26T04:27:22;12.02;;;7.88;;
84254;SDS011;74400;44.692;18.998;2024-02-26T04:29:48;13.52;;;8.27;;
84254;SDS011;74400;44.692;18.998;2024-02-26T04:32:14;16.75;;;7.93;;
84254;SDS011;74400;44.692;18.998;2024-02-26T04:34:40;9.30;;;6.38;;
84254;SDS011;74400;44.692;18.998;2024-02-26T04:37:07;12.52;;;6.43;;
84254;SDS011;74400;44.692;18.998;2024-02-26T04:39:32;11.73;;;7.20;;
84254;SDS011;74400;44.692;18.998;2024-02-26T04:41:58;13.73;;;7.00;;
84254;SDS011;74400;44.692;18.998;2024-02-26T04:44:24;13.27;;;7.45;;
84254;SDS011;74400;44.692;18.998;2024-02-26T04:46:50;12.43;;;7.20;;
84254;SDS011;74400;44.692;18.998;2024-02-26T04:49:15;13.38;;;7.65;;
84254;SDS011;74400;44.692;18.998;2024-02-26T04:51:41;11.80;;;7.15;;
84254;SDS011;74400;44.692;18.998;2024-02-26T04:54:07;12.77;;;7.45;;
84254;SDS011;74400;44.692;18.998;2024-02-26T04:56:32;15.68;;;7.97;;
84254;SDS011;74400;44.692;18.998;2024-02-26T04:58:58;13.00;;;7.75;;
84254;SDS011;74400;44.692;18.998;2024-02-26T05:01:23;6.00;;;4.55;;
84254;SDS011;74400;44.692;18.998;2024-02-26T05:03:49;7.85;;;4.60;;
84254;SDS011;74400;44.692;18.998;2024-02-26T05:06:15;8.75;;;5.35;;
84254;SDS011;74400;44.692;18.998;2024-02-26T05:08:40;10.43;;;5.50;;
84254;SDS011;74400;44.692;18.998;2024-02-26T05:11:06;10.73;;;5.93;;
84254;SDS011;74400;44.692;18.998;2024-02-26T05:13:32;10.40;;;5.60;;
84254;SDS011;74400;44.692;18.998;2024-02-26T05:15:58;11.75;;;7.30;;
84254;SDS011;74400;44.692;18.998;2024-02-26T05:18:23;15.95;;;7.97;;
84254;SDS011;74400;44.692;18.998;2024-02-26T05:20:49;19.15;;;8.48;;
84254;SDS011;74400;44.692;18.998;2024-02-26T05:23:15;12.95;;;6.78;;
84254;SDS011;74400;44.692;18.998;2024-02-26T05:25:40;13.75;;;7.93;;
84254;SDS011;74400;44.692;18.998;2024-02-26T05:28:06;13.50;;;8.13;;
84254;SDS011;74400;44.692;18.998;2024-02-26T05:30:32;13.18;;;7.32;;
84254;SDS011;74400;44.692;18.998;2024-02-26T05:32:58;13.25;;;8.27;;
84254;SDS011;74400;44.692;18.998;2024-02-26T05:35:26;17.52;;;7.47;;
84254;SDS011;74400;44.692;18.998;2024-02-26T05:37:52;16.65;;;9.95;;
84254;SDS011;74400;44.692;18.998;2024-02-26T05:40:19;30.48;;;16.50;;
84254;SDS011;74400;44.692;18.998;2024-02-26T05:42:44;36.67;;;20.75;;
84254;SDS011;74400;44.692;18.998;2024-02-26T05:45:10;28.35;;;16.33;;
84254;SDS011;74400;44.692;18.998;2024-02-26T05:47:36;19.38;;;11.63;;
84254;SDS011;74400;44.692;18.998;2024-02-26T05:50:11;15.27;;;9.57;;
84254;SDS011;74400;44.692;18.998;2024-02-26T05:52:43;12.38;;;8.20;;
84254;SDS011;74400;44.692;18.998;2024-02-26T05:55:09;14.52;;;8.00;;
84254;SDS011;74400;44.692;18.998;2024-02-26T05:57:35;16.60;;;9.20;;
84254;SDS011;74400;44.692;18.998;2024-02-26T06:00:05;21.58;;;10.90;;
84254;SDS011;74400;44.692;18.998;2024-02-26T06:05:43;13.82;;;8.38;;
84254;SDS011;74400;44.692;18.998;2024-02-26T06:08:12;13.98;;;8.52;;
84254;SDS011;74400;44.692;18.998;2024-02-26T06:10:46;15.43;;;8.80;;
84254;SDS011;74400;44.692;18.998;2024-02-26T06:13:21;16.17;;;8.32;;
84254;SDS011;74400;44.692;18.998;2024-02-26T06:15:54;12.10;;;6.70;;
84254;SDS011;74400;44.692;18.998;2024-02-26T06:18:22;14.63;;;7.20;;
84254;SDS011;74400;44.692;18.998;2024-02-26T06:20:49;13.80;;;8.15;;
84254;SDS011;74400;44.692;18.998;2024-02-26T06:23:15;14.77;;;8.30;;
84254;SDS011;74400;44.692;18.998;2024-02-26T06:25:41;12.73;;;8.15;;
84254;SDS011;74400;44.692;18.998;2024-02-26T06:28:08;13.25;;;8.02;;
84254;SDS011;74400;44.692;18.998;2024-02-26T06:30:34;14.43;;;8.23;;
84254;SDS011;74400;44.692;18.998;2024-02-26T06:33:00;16.17;;;8.80;;
84254;SDS011;74400;44.692;18.998;2024-02-26T06:35:26;16.58;;;8.80;;
84254;SDS011;74400;44.692;18.998;2024-02-26T06:37:52;9.93;;;6.72;;
84254;SDS011;74400;44.692;18.998;2024-02-26T06:40:19;12.90;;;6.82;;
84254;SDS011;74400;44.692;18.998;2024-02-26T06:42:44;10.02;;;7.05;;
84254;SDS011;74400;44.692;18.998;2024-02-26T06:45:10;15.75;;;7.82;;
84254;SDS011;74400;44.692;18.998;2024-02-26T06:47:36;13.25;;;7.63;;
84254;SDS011;74400;44.692;18.998;2024-02-26T06:50:03;11.13;;;7.68;;
84254;SDS011;74400;44.692;18.998;2024-02-26T06:52:29;14.18;;;8.82;;
84254;SDS011;74400;44.692;18.998;2024-02-26T06:59:11;12.57;;;7.30;;
84254;SDS011;74400;44.692;18.998;2024-02-26T07:01:37;14.57;;;7.53;;
84254;SDS011;74400;44.692;18.998;2024-02-26T07:04:05;11.63;;;7.53;;
84254;SDS011;74400;44.692;18.998;2024-02-26T07:06:31;12.45;;;7.43;;
84254;SDS011;74400;44.692;18.998;2024-02-26T07:08:56;11.52;;;6.82;;
84254;SDS011;74400;44.692;18.998;2024-02-26T07:11:22;13.60;;;7.47;;
84254;SDS011;74400;44.692;18.998;2024-02-26T07:13:48;21.65;;;13.70;;
84254;SDS011;74400;44.692;18.998;2024-02-26T07:16:14;18.92;;;12.30;;
84254;SDS011;74400;44.692;18.998;2024-02-26T07:18:40;22.80;;;13.98;;
84254;SDS011;74400;44.692;18.998;2024-02-26T07:21:06;16.38;;;10.35;;
84254;SDS011;74400;44.692;18.998;2024-02-26T07:23:32;15.45;;;9.70;;
84254;SDS011;74400;44.692;18.998;2024-02-26T07:25:57;11.63;;;7.25;;
84254;SDS011;74400;44.692;18.998;2024-02-26T07:28:24;14.05;;;7.65;;
84254;SDS011;74400;44.692;18.998;2024-02-26T07:30:50;12.85;;;7.05;;
84254;SDS011;74400;44.692;18.998;2024-02-26T07:33:15;13.02;;;7.00;;
84254;SDS011;74400;44.692;18.998;2024-02-26T07:35:41;10.68;;;7.22;;
84254;SDS011;74400;44.692;18.998;2024-02-26T07:45:22;12.63;;;7.25;;
84254;SDS011;74400;44.692;18.998;2024-02-26T07:47:48;11.98;;;7.68;;
84254;SDS011;74400;44.692;18.998;2024-02-26T07:52:40;15.10;;;7.47;;
84254;SDS011;74400;44.692;18.998;2024-02-26T07:55:06;11.80;;;7.30;;
84254;SDS011;74400;44.692;18.998;2024-02-26T07:57:32;10.52;;;7.20;;
84254;SDS011;74400;44.692;18.998;2024-02-26T08:00:04;9.77;;;6.80;;
84254;SDS011;74400;44.692;18.998;2024-02-26T08:02:34;16.85;;;7.93;;
84254;SDS011;74400;44.692;18.998;2024-02-26T08:05:00;11.20;;;7.30;;
84254;SDS011;74400;44.692;18.998;2024-02-26T08:07:26;10.77;;;6.90;;
84254;SDS011;74400;44.692;18.998;2024-02-26T08:13:11;13.38;;;7.70;;
84254;SDS011;74400;44.692;18.998;2024-02-26T08:15:37;12.88;;;8.43;;
84254;SDS011;74400;44.692;18.998;2024-02-26T08:18:03;18.17;;;10.15;;
84254;SDS011;74400;44.692;18.998;2024-02-26T08:20:29;13.55;;;7.95;;
84254;SDS011;74400;44.692;18.998;2024-02-26T08:22:55;13.70;;;9.07;;
84254;SDS011;74400;44.692;18.998;2024-02-26T08:25:22;12.25;;;8.18;;
84254;SDS011;74400;44.692;18.998;2024-02-26T08:30:46;20.17;;;11.75;;
84254;SDS011;74400;44.692;18.998;2024-02-26T08:35:42;26.83;;;16.02;;
84254;SDS011;74400;44.692;18.998;2024-02-26T08:38:10;22.77;;;12.82;;
84254;SDS011;74400;44.692;18.998;2024-02-26T08:40:36;19.77;;;11.57;;
84254;SDS011;74400;44.692;18.998;2024-02-26T08:43:02;18.02;;;10.90;;
84254;SDS011;74400;44.692;18.998;2024-02-26T08:45:27;20.63;;;10.52;;
84254;SDS011;74400;44.692;18.998;2024-02-26T08:51:19;24.52;;;11.32;;
84254;SDS011;74400;44.692;18.998;2024-02-26T08:53:45;28.55;;;17.05;;
84254;SDS011;74400;44.692;18.998;2024-02-26T08:56:15;32.22;;;19.50;;
84254;SDS011;74400;44.692;18.998;2024-02-26T08:58:42;32.70;;;20.88;;
84254;SDS011;74400;44.692;18.998;2024-02-26T09:01:08;27.52;;;18.02;;
84254;SDS011;74400;44.692;18.998;2024-02-26T09:03:34;29.88;;;16.63;;
84254;SDS011;74400;44.692;18.998;2024-02-26T09:06:00;27.45;;;17.13;;
84254;SDS011;74400;44.692;18.998;2024-02-26T09:08:25;26.95;;;16.75;;
84254;SDS011;74400;44.692;18.998;2024-02-26T09:10:51;25.95;;;14.18;;
84254;SDS011;74400;44.692;18.998;2024-02-26T09:13:17;16.73;;;9.65;;
84254;SDS011;74400;44.692;18.998;2024-02-26T09:15:44;21.67;;;9.75;;
84254;SDS011;74400;44.692;18.998;2024-02-26T09:18:09;13.57;;;8.38;;
84254;SDS011;74400;44.692;18.998;2024-02-26T09:20:35;19.52;;;10.80;;
84254;SDS011;74400;44.692;18.998;2024-02-26T09:23:01;17.77;;;10.35;;
84254;SDS011;74400;44.692;18.998;2024-02-26T09:25:27;27.38;;;15.43;;
84254;SDS011;74400;44.692;18.998;2024-02-26T09:27:53;32.58;;;20.10;;
84254;SDS011;74400;44.692;18.998;2024-02-26T09:30:19;36.10;;;22.33;;
84254;SDS011;74400;44.692;18.998;2024-02-26T09:32:48;28.45;;;19.48;;
84254;SDS011;74400;44.692;18.998;2024-02-26T09:41:20;43.40;;;26.15;;
84254;SDS011;74400;44.692;18.998;2024-02-26T09:43:46;37.38;;;22.10;;
84254;SDS011;74400;44.692;18.998;2024-02-26T09:48:45;35.22;;;21.77;;
84254;SDS011;74400;44.692;18.998;2024-02-26T09:54:50;28.65;;;18.98;;
84254;SDS011;74400;44.692;18.998;2024-02-26T09:57:16;26.38;;;18.00;;
84254;SDS011;74400;44.692;18.998;2024-02-26T09:59:42;26.33;;;16.55;;
84254;SDS011;74400;44.692;18.998;2024-02-26T10:02:11;25.90;;;17.90;;
84254;SDS011;74400;44.692;18.998;2024-02-26T10:04:39;26.27;;;18.52;;
84254;SDS011;74400;44.692;18.998;2024-02-26T10:07:09;23.30;;;16.00;;
84254;SDS011;74400;44.692;18.998;2024-02-26T10:09:38;23.15;;;16.15;;
84254;SDS011;74400;44.692;18.998;2024-02-26T10:12:04;22.60;;;14.35;;
84254;SDS011;74400;44.692;18.998;2024-02-26T10:17:28;27.42;;;16.27;;
84254;SDS011;74400;44.692;18.998;2024-02-26T10:19:54;23.48;;;15.20;;
84254;SDS011;74400;44.692;18.998;2024-02-26T10:22:35;22.83;;;14.38;;
84254;SDS011;74400;44.692;18.998;2024-02-26T10:25:04;26.20;;;16.30;;
84254;SDS011;74400;44.692;18.998;2024-02-26T10:27:30;23.50;;;14.55;;
84254;SDS011;74400;44.692;18.998;2024-02-26T10:29:57;25.60;;;14.02;;
84254;SDS011;74400;44.692;18.998;2024-02-26T10:32:23;19.90;;;13.30;;
84254;SDS011;74400;44.692;18.998;2024-02-26T10:34:55;23.17;;;13.95;;
84254;SDS011;74400;44.692;18.998;2024-02-26T10:37:21;22.23;;;12.25;;
84254;SDS011;74400;44.692;18.998;2024-02-26T10:39:48;18.40;;;12.13;;
84254;SDS011;74400;44.692;18.998;2024-02-26T10:42:15;15.93;;;10.85;;
84254;SDS011;74400;44.692;18.998;2024-02-26T10:44:43;23.77;;;14.40;;
84254;SDS011;74400;44.692;18.998;2024-02-26T10:47:10;24.70;;;15.40;;
84254;SDS011;74400;44.692;18.998;2024-02-26T10:49:35;22.50;;;13.27;;
84254;SDS011;74400;44.692;18.998;2024-02-26T10:55:32;22.27;;;12.20;;
84254;SDS011;74400;44.692;18.998;2024-02-26T10:58:00;20.20;;;11.48;;
84254;SDS011;74400;44.692;18.998;2024-02-26T11:00:28;21.73;;;13.70;;
84254;SDS011;74400;44.692;18.998;2024-02-26T11:02:56;19.63;;;12.70;;
84254;SDS011;74400;44.692;18.998;2024-02-26T11:05:26;17.52;;;11.10;;
84254;SDS011;74400;44.692;18.998;2024-02-26T11:07:54;15.35;;;10.90;;
84254;SDS011;74400;44.692;18.998;2024-02-26T11:10:22;16.02;;;10.43;;
84254;SDS011;74400;44.692;18.998;2024-02-26T11:12:48;17.23;;;9.93;;
84254;SDS011;74400;44.692;18.998;2024-02-26T11:15:16;12.65;;;7.93;;
84254;SDS011;74400;44.692;18.998;2024-02-26T11:17:43;12.40;;;6.85;;
84254;SDS011;74400;44.692;18.998;2024-02-26T11:20:11;12.82;;;8.13;;
84254;SDS011;74400;44.692;18.998;2024-02-26T11:22:38;14.60;;;7.13;;
84254;SDS011;74400;44.692;18.998;2024-02-26T11:25:04;12.82;;;7.85;;
84254;SDS011;74400;44.692;18.998;2024-02-26T11:27:33;13.43;;;7.43;;
84254;SDS011;74400;44.692;18.998;2024-02-26T11:30:04;13.25;;;7.22;;
84254;SDS011;74400;44.692;18.998;2024-02-26T11:32:34;14.47;;;8.43;;
84254;SDS011;74400;44.692;18.998;2024-02-26T11:35:00;13.73;;;7.72;;
84254;SDS011;74400;44.692;18.998;2024-02-26T11:37:26;15.75;;;7.40;;
84254;SDS011;74400;44.692;18.998;2024-02-26T11:39:52;10.00;;;6.47;;
84254;SDS011;74400;44.692;18.998;2024-02-26T11:42:22;8.82;;;6.28;;
84254;SDS011;74400;44.692;18.998;2024-02-26T11:44:50;13.85;;;6.57;;
84254;SDS011;74400;44.692;18.998;2024-02-26T11:47:21;11.48;;;6.47;;
84254;SDS011;74400;44.692;18.998;2024-02-26T11:49:48;9.48;;;6.07;;
84254;SDS011;74400;44.692;18.998;2024-02-26T11:52:20;9.35;;;5.07;;
84254;SDS011;74400;44.692;18.998;2024-02-26T11:54:47;10.57;;;6.05;;
84254;SDS011;74400;44.692;18.998;2024-02-26T11:57:21;8.07;;;4.82;;
84254;SDS011;74400;44.692;18.998;2024-02-26T12:02:39;8.90;;;5.68;;
84254;SDS011;74400;44.692;18.998;2024-02-26T12:05:10;7.97;;;5.07;;
84254;SDS011;74400;44.692;18.998;2024-02-26T12:07:45;9.05;;;5.22;;
84254;SDS011;74400;44.692;18.998;2024-02-26T12:12:41;7.18;;;5.10;;
84254;SDS011;74400;44.692;18.998;2024-02-26T12:15:07;7.60;;;4.97;;
84254;SDS011;74400;44.692;18.998;2024-02-26T12:17:34;11.63;;;6.65;;
84254;SDS011;74400;44.692;18.998;2024-02-26T12:20:10;13.25;;;6.85;;
84254;SDS011;74400;44.692;18.998;2024-02-26T12:22:37;12.60;;;7.25;;
84254;SDS011;74400;44.692;18.998;2024-02-26T12:25:05;11.75;;;7.47;;
84254;SDS011;74400;44.692;18.998;2024-02-26T12:27:34;12.05;;;8.48;;
84254;SDS011;74400;44.692;18.998;2024-02-26T12:30:00;14.25;;;8.05;;
84254;SDS011;74400;44.692;18.998;2024-02-26T12:32:28;11.35;;;7.03;;
84254;SDS011;74400;44.692;18.998;2024-02-26T12:34:54;16.20;;;8.45;;
84254;SDS011;74400;44.692;18.998;2024-02-26T12:37:19;12.02;;;7.72;;
84254;SDS011;74400;44.692;18.998;2024-02-26T12:39:45;9.85;;;7.18;;
84254;SDS011;74400;44.692;18.998;2024-02-26T12:42:11;15.25;;;7.88;;
84254;SDS011;74400;44.692;18.998;2024-02-26T12:48:08;14.15;;;6.50;;
84254;SDS011;74400;44.692;18.998;2024-02-26T12:50:34;11.20;;;7.68;;
84254;SDS011;74400;44.692;18.998;2024-02-26T12:53:00;11.45;;;7.13;;
84254;SDS011;74400;44.692;18.998;2024-02-26T12:55:35;15.73;;;8.38;;
84254;SDS011;74400;44.692;18.998;2024-02-26T12:58:01;15.18;;;8.10;;
84254;SDS011;74400;44.692;18.998;2024-02-26T13:00:27;8.13;;;5.97;;
84254;SDS011;74400;44.692;18.998;2024-02-26T13:02:54;12.68;;;6.72;;
84254;SDS011;74400;44.692;18.998;2024-02-26T13:05:22;12.30;;;6.88;;
84254;SDS011;74400;44.692;18.998;2024-02-26T13:07:48;12.82;;;6.40;;
84254;SDS011;74400;44.692;18.998;2024-02-26T13:10:15;6.75;;;5.47;;
84254;SDS011;74400;44.692;18.998;2024-02-26T13:12:46;7.97;;;5.28;;
84254;SDS011;74400;44.692;18.998;2024-02-26T13:21:20;6.60;;;4.00;;
84254;SDS011;74400;44.692;18.998;2024-02-26T13:23:52;8.98;;;4.88;;
84254;SDS011;74400;44.692;18.998;2024-02-26T13:26:21;8.48;;;4.53;;
84254;SDS011;74400;44.692;18.998;2024-02-26T13:29:00;10.77;;;6.50;;
84254;SDS011;74400;44.692;18.998;2024-02-26T13:31:29;10.68;;;7.25;;
84254;SDS011;74400;44.692;18.998;2024-02-26T13:33:55;12.50;;;7.95;;
84254;SDS011;74400;44.692;18.998;2024-02-26T13:36:22;12.82;;;8.10;;
84254;SDS011;74400;44.692;18.998;2024-02-26T13:42:11;12.98;;;7.68;;
84254;SDS011;74400;44.692;18.998;2024-02-26T13:44:40;14.00;;;8.18;;
84254;SDS011;74400;44.692;18.998;2024-02-26T13:47:07;14.90;;;7.03;;
84254;SDS011;74400;44.692;18.998;2024-02-26T13:49:34;15.73;;;7.63;;
84254;SDS011;74400;44.692;18.998;2024-02-26T13:52:02;13.07;;;7.75;;
84254;SDS011;74400;44.692;18.998;2024-02-26T13:54:30;12.50;;;7.20;;
84254;SDS011;74400;44.692;18.998;2024-02-26T13:56:55;11.63;;;6.63;;
84254;SDS011;74400;44.692;18.998;2024-02-26T13:59:21;11.38;;;7.07;;
84254;SDS011;74400;44.692;18.998;2024-02-26T14:01:49;9.50;;;6.60;;
84254;SDS011;74400;44.692;18.998;2024-02-26T14:04:15;13.02;;;7.82;;
84254;SDS011;74400;44.692;18.998;2024-02-26T14:06:42;15.65;;;8.85;;
84254;SDS011;74400;44.692;18.998;2024-02-26T14:09:11;16.50;;;9.13;;
84254;SDS011;74400;44.692;18.998;2024-02-26T14:11:46;13.43;;;8.07;;
84254;SDS011;74400;44.692;18.998;2024-02-26T14:14:17;12.20;;;6.55;;
84254;SDS011;74400;44.692;18.998;2024-02-26T14:16:43;11.02;;;6.72;;
84254;SDS011;74400;44.692;18.998;2024-02-26T14:19:09;11.20;;;8.20;;
84254;SDS011;74400;44.692;18.998;2024-02-26T14:21:35;16.48;;;9.40;;
84254;SDS011;74400;44.692;18.998;2024-02-26T14:24:01;13.60;;;8.50;;
84254;SDS011;74400;44.692;18.998;2024-02-26T14:26:27;14.75;;;9.13;;
84254;SDS011;74400;44.692;18.998;2024-02-26T14:28:58;12.38;;;8.20;;
84254;SDS011;74400;44.692;18.998;2024-02-26T14:31:24;17.00;;;9.27;;
84254;SDS011;74400;44.692;18.998;2024-02-26T14:33:51;18.42;;;10.57;;
84254;SDS011;74400;44.692;18.998;2024-02-26T14:36:20;17.15;;;9.98;;
84254;SDS011;74400;44.692;18.998;2024-02-26T14:38:46;15.90;;;10.95;;
84254;SDS011;74400;44.692;18.998;2024-02-26T14:41:13;17.45;;;11.38;;
84254;SDS011;74400;44.692;18.998;2024-02-26T14:43:40;16.90;;;11.68;;
84254;SDS011;74400;44.692;18.998;2024-02-26T14:46:06;16.92;;;10.93;;
84254;SDS011;74400;44.692;18.998;2024-02-26T14:48:32;15.25;;;10.93;;
84254;SDS011;74400;44.692;18.998;2024-02-26T14:51:01;17.58;;;12.40;;
84254;SDS011;74400;44.692;18.998;2024-02-26T14:53:31;18.13;;;12.52;;
84254;SDS011;74400;44.692;18.998;2024-02-26T14:55:57;21.08;;;13.38;;
84254;SDS011;74400;44.692;18.998;2024-02-26T14:58:23;22.90;;;14.98;;
84254;SDS011;74400;44.692;18.998;2024-02-26T15:00:52;26.77;;;16.00;;
84254;SDS011;74400;44.692;18.998;2024-02-26T15:03:18;24.17;;;13.93;;
84254;SDS011;74400;44.692;18.998;2024-02-26T15:05:45;22.75;;;12.85;;
84254;SDS011;74400;44.692;18.998;2024-02-26T15:08:12;22.27;;;12.02;;
84254;SDS011;74400;44.692;18.998;2024-02-26T15:10:39;17.60;;;12.02;;
84254;SDS011;74400;44.692;18.998;2024-02-26T15:13:04;21.58;;;11.95;;
84254;SDS011;74400;44.692;18.998;2024-02-26T15:15:31;21.95;;;12.02;;
84254;SDS011;74400;44.692;18.998;2024-02-26T15:17:57;23.95;;;12.77;;
84254;SDS011;74400;44.692;18.998;2024-02-26T15:20:22;22.05;;;13.45;;